createdAt,value
2018-10-12T00:01:43.781Z,18.03
2018-10-12T00:04:11.984Z,15.13
2018-10-12T00:06:40.460Z,18.00
2018-10-12T00:09:09.909Z,18.07
2018-10-12T00:11:38.174Z,17.23
2018-10-12T00:14:06.324Z,20.57
2018-10-12T00:16:34.517Z,17.97
2018-10-12T00:19:02.655Z,16.27
2018-10-12T00:21:30.790Z,21.40
2018-10-12T00:23:58.980Z,24.63
2018-10-12T00:26:27.313Z,17.93
2018-10-12T00:28:55.465Z,16.57
2018-10-12T00:31:23.705Z,18.30
2018-10-12T00:33:51.851Z,19.40
2018-10-12T00:36:20.095Z,20.30
2018-10-12T00:38:48.398Z,21.67
2018-10-12T00:41:16.601Z,19.30
2018-10-12T00:43:44.775Z,25.53
2018-10-12T00:46:12.952Z,21.73
2018-10-12T00:48:41.121Z,22.17
2018-10-12T00:51:09.278Z,26.70
2018-10-12T00:53:37.462Z,18.30
2018-10-12T00:56:05.636Z,19.33
2018-10-12T00:58:33.812Z,22.23
2018-10-12T01:01:01.991Z,17.47
2018-10-12T01:03:30.299Z,21.63
2018-10-12T01:05:58.474Z,21.10
2018-10-12T01:08:26.738Z,25.83
2018-10-12T01:10:54.966Z,20.77
2018-10-12T01:13:23.178Z,20.97
2018-10-12T01:15:51.360Z,23.30
2018-10-12T01:18:19.647Z,36.00
2018-10-12T01:20:47.863Z,19.60
2018-10-12T01:23:16.056Z,23.10
2018-10-12T01:25:44.284Z,18.80
2018-10-12T01:28:12.448Z,21.87
2018-10-12T01:30:40.622Z,23.40
2018-10-12T01:33:08.768Z,24.33
2018-10-12T01:35:37.016Z,22.90
2018-10-12T01:38:05.241Z,21.03
2018-10-12T01:40:33.680Z,18.13
2018-10-12T01:43:02.208Z,20.50
2018-10-12T01:45:30.424Z,21.60
2018-10-12T01:47:58.597Z,24.70
2018-10-12T01:50:26.826Z,25.67
2018-10-12T01:52:54.961Z,21.83
2018-10-12T01:55:23.110Z,20.10
2018-10-12T01:57:51.283Z,20.93
2018-10-12T02:00:19.592Z,26.10
2018-10-12T02:02:47.806Z,25.57
2018-10-12T02:05:15.948Z,21.63
2018-10-12T02:07:44.150Z,32.33
2018-10-12T02:10:12.287Z,19.30
2018-10-12T02:12:40.491Z,23.67
2018-10-12T02:15:08.655Z,20.20
2018-10-12T02:17:36.879Z,21.80
2018-10-12T02:20:05.188Z,18.50
2018-10-12T02:22:33.330Z,20.57
2018-10-12T02:25:01.572Z,19.60
2018-10-12T02:27:29.721Z,27.20
2018-10-12T02:29:57.951Z,34.40
2018-10-12T02:32:26.225Z,24.73
2018-10-12T02:34:54.388Z,24.10
2018-10-12T02:37:22.565Z,23.67
2018-10-12T02:39:50.765Z,22.37
2018-10-12T02:42:18.980Z,27.30
2018-10-12T02:44:47.118Z,22.10
2018-10-12T02:47:15.291Z,22.97
2018-10-12T02:49:43.438Z,24.60
2018-10-12T02:52:11.598Z,23.70
2018-10-12T02:54:39.918Z,17.97
2018-10-12T02:57:08.209Z,22.07
2018-10-12T02:59:36.384Z,22.30
2018-10-12T03:02:04.526Z,24.33
2018-10-12T03:04:32.705Z,28.97
2018-10-12T03:07:00.922Z,23.90
2018-10-12T03:09:29.056Z,27.87
2018-10-12T03:11:57.234Z,24.60
2018-10-12T03:14:25.380Z,28.70
2018-10-12T03:16:53.552Z,26.50
2018-10-12T03:19:21.831Z,24.57
2018-10-12T03:21:50.109Z,23.63
2018-10-12T03:24:18.653Z,29.63
2018-10-12T03:26:46.931Z,25.50
2018-10-12T03:29:15.188Z,27.20
2018-10-12T03:31:43.417Z,29.03
2018-10-12T03:34:11.652Z,26.10
2018-10-12T03:36:40.023Z,29.90
2018-10-12T03:39:08.505Z,20.63
2018-10-12T03:41:36.783Z,22.27
2018-10-12T03:44:04.928Z,24.87
2018-10-12T03:46:33.093Z,29.70
2018-10-12T03:49:02.223Z,29.97
2018-10-12T03:51:31.497Z,23.37
2018-10-12T03:53:59.982Z,27.97
2018-10-12T03:56:28.149Z,26.93
2018-10-12T03:58:56.418Z,26.23
2018-10-12T04:01:24.571Z,28.27
2018-10-12T04:03:52.750Z,31.57
2018-10-12T04:06:20.912Z,33.33
2018-10-12T04:08:49.112Z,34.10
2018-10-12T04:11:17.300Z,33.93
2018-10-12T04:13:45.472Z,32.80
2018-10-12T04:16:13.672Z,27.50
2018-10-12T04:18:42.161Z,34.07
2018-10-12T04:21:10.328Z,33.47
2018-10-12T04:23:38.686Z,33.20
2018-10-12T04:26:07.004Z,36.27
2018-10-12T04:28:35.159Z,39.27
2018-10-12T04:31:03.337Z,33.80
2018-10-12T04:33:31.558Z,40.90
2018-10-12T04:35:59.851Z,32.30
2018-10-12T04:38:36.711Z,36.53
2018-10-12T04:41:07.649Z,33.13
2018-10-12T04:43:35.834Z,37.13
2018-10-12T04:46:06.544Z,34.90
2018-10-12T04:48:35.726Z,34.60
2018-10-12T04:51:05.472Z,33.83
2018-10-12T04:53:33.710Z,30.60
2018-10-12T04:56:01.921Z,35.20
2018-10-12T04:58:30.145Z,31.10
2018-10-12T05:00:58.335Z,35.57
2018-10-12T05:03:26.471Z,30.33
2018-10-12T05:05:54.640Z,45.63
2018-10-12T05:08:22.850Z,33.70
2018-10-12T05:10:51.092Z,31.07
2018-10-12T05:13:19.281Z,29.87
2018-10-12T05:15:47.445Z,28.20
2018-10-12T05:18:15.714Z,34.97
2018-10-12T05:20:43.990Z,27.57
2018-10-12T05:23:12.287Z,29.37
2018-10-12T05:25:40.536Z,34.83
2018-10-12T05:28:08.779Z,29.80
2018-10-12T05:30:36.961Z,35.03
2018-10-12T05:33:05.195Z,32.60
2018-10-12T05:35:33.640Z,29.83
2018-10-12T05:38:01.890Z,36.40
2018-10-12T05:40:30.271Z,39.87
2018-10-12T05:42:58.547Z,39.67
2018-10-12T05:45:26.781Z,36.20
2018-10-12T05:48:05.249Z,39.17
2018-10-12T05:50:33.584Z,31.80
2018-10-12T05:53:01.824Z,42.53
2018-10-12T05:55:29.998Z,40.77
2018-10-12T05:57:58.165Z,34.10
2018-10-12T06:00:31.176Z,44.87
2018-10-12T06:02:59.341Z,34.17
2018-10-12T06:05:27.504Z,40.40
2018-10-12T06:07:55.674Z,36.07
2018-10-12T06:10:23.900Z,34.43
2018-10-12T06:12:52.119Z,43.13
2018-10-12T06:15:20.390Z,48.13
2018-10-12T06:17:48.545Z,41.60
2018-10-12T06:20:16.780Z,41.37
2018-10-12T06:22:45.053Z,44.43
2018-10-12T06:25:13.217Z,38.87
2018-10-12T06:27:41.382Z,30.87
2018-10-12T06:30:09.784Z,34.50
2018-10-12T06:32:38.029Z,30.73
2018-10-12T06:35:06.922Z,34.87
2018-10-12T06:37:35.448Z,38.80
2018-10-12T06:40:04.400Z,33.00
2018-10-12T06:42:32.637Z,43.53
2018-10-12T06:45:01.492Z,27.93
2018-10-12T06:47:29.864Z,31.83
2018-10-12T06:49:58.055Z,34.97
2018-10-12T06:52:26.199Z,34.17
2018-10-12T06:54:54.545Z,33.73
2018-10-12T06:57:22.767Z,30.00
2018-10-12T06:59:51.007Z,36.43
2018-10-12T07:02:20.704Z,32.90
2018-10-12T07:04:49.961Z,30.33
2018-10-12T07:07:18.310Z,39.30
2018-10-12T07:09:46.721Z,35.83
2018-10-12T07:12:15.406Z,37.33
2018-10-12T07:14:43.828Z,33.53
2018-10-12T07:17:12.142Z,28.30
2018-10-12T07:19:40.571Z,33.13
2018-10-12T07:22:08.795Z,31.17
2018-10-12T07:24:37.033Z,26.80
2018-10-12T07:27:05.680Z,33.47
2018-10-12T07:29:34.038Z,27.97
2018-10-12T07:32:02.338Z,30.67
2018-10-12T07:34:30.592Z,30.40
2018-10-12T07:36:58.812Z,26.27
2018-10-12T07:39:27.038Z,26.13
2018-10-12T07:41:55.299Z,28.23
2018-10-12T07:44:23.687Z,38.27
2018-10-12T07:46:51.880Z,37.10
2018-10-12T07:49:20.646Z,29.00
2018-10-12T07:51:48.879Z,29.47
2018-10-12T07:54:17.256Z,26.90
2018-10-12T07:56:45.542Z,32.30
2018-10-12T07:59:13.794Z,25.50
2018-10-12T08:01:42.033Z,25.97
2018-10-12T08:04:10.208Z,24.40
2018-10-12T08:06:38.372Z,28.30
2018-10-12T08:09:07.817Z,26.77
2018-10-12T08:11:36.506Z,31.07
2018-10-12T08:14:04.847Z,33.83
2018-10-12T08:16:32.963Z,27.73
2018-10-12T08:19:01.244Z,23.80
2018-10-12T08:21:30.105Z,26.20
2018-10-12T08:23:58.345Z,25.90
2018-10-12T08:26:26.556Z,23.57
2018-10-12T08:28:54.696Z,30.97
2018-10-12T08:31:23.439Z,27.57
2018-10-12T08:33:51.679Z,20.17
2018-10-12T08:36:19.853Z,23.80
2018-10-12T08:38:48.145Z,28.20
2018-10-12T08:41:16.304Z,28.00
2018-10-12T08:43:44.720Z,27.60
2018-10-12T08:46:12.940Z,23.90
2018-10-12T08:48:41.156Z,22.97
2018-10-12T08:51:09.351Z,20.97
2018-10-12T08:53:37.586Z,24.47
2018-10-12T08:56:06.001Z,24.30
2018-10-12T08:58:38.780Z,33.80
2018-10-12T09:01:06.956Z,21.17
2018-10-12T09:03:35.223Z,24.50
2018-10-12T09:06:03.512Z,23.67
2018-10-12T09:08:31.714Z,25.17
2018-10-12T09:10:59.898Z,25.17
2018-10-12T09:13:28.214Z,26.93
2018-10-12T09:15:56.621Z,26.73
2018-10-12T09:18:24.826Z,26.70
2018-10-12T09:20:53.639Z,24.67
2018-10-12T09:23:22.359Z,22.63
2018-10-12T09:25:50.570Z,22.33
2018-10-12T09:28:18.808Z,19.40
2018-10-12T09:30:46.980Z,23.60
2018-10-12T09:33:15.223Z,22.30
2018-10-12T09:35:43.423Z,25.07
2018-10-12T09:38:11.669Z,21.80
2018-10-12T09:40:40.189Z,25.03
2018-10-12T09:43:08.444Z,26.50
2018-10-12T09:45:41.756Z,27.53
2018-10-12T09:50:47.960Z,23.13
2018-10-12T09:53:16.268Z,25.13
2018-10-12T09:55:44.538Z,25.97
2018-10-12T09:58:12.962Z,23.70
2018-10-12T10:00:46.626Z,24.57
2018-10-12T10:03:20.066Z,24.40
2018-10-12T10:05:48.316Z,21.53
2018-10-12T10:08:16.695Z,27.07
2018-10-12T10:10:44.783Z,26.40
2018-10-12T10:13:13.160Z,23.70
2018-10-12T10:15:41.379Z,23.70
2018-10-12T10:18:11.817Z,28.23
2018-10-12T10:20:40.726Z,25.50
2018-10-12T10:23:09.413Z,24.60
2018-10-12T10:25:37.672Z,24.47
2018-10-12T10:28:07.017Z,17.70
2018-10-12T10:30:35.314Z,20.83
2018-10-12T10:33:05.092Z,25.03
2018-10-12T10:35:34.093Z,33.93
2018-10-12T10:38:02.380Z,24.90
2018-10-12T10:40:30.583Z,28.07
2018-10-12T10:42:59.060Z,22.90
2018-10-12T10:45:28.255Z,26.03
2018-10-12T10:47:56.609Z,25.43
2018-10-12T10:50:25.806Z,31.77
2018-10-12T10:52:53.994Z,25.80
2018-10-12T10:55:22.212Z,25.67
2018-10-12T10:57:50.353Z,25.17
2018-10-12T11:00:18.499Z,29.37
2018-10-12T11:02:46.780Z,21.87
2018-10-12T11:05:15.008Z,24.03
2018-10-12T11:07:43.325Z,22.37
2018-10-12T11:10:11.535Z,21.90
2018-10-12T11:12:40.299Z,21.17
2018-10-12T11:15:08.537Z,23.60
2018-10-12T11:20:14.840Z,24.90
2018-10-12T11:22:43.129Z,21.67
2018-10-12T11:25:11.334Z,24.77
2018-10-12T11:27:39.553Z,25.23
2018-10-12T11:30:08.053Z,28.20
2018-10-12T11:32:36.436Z,23.27
2018-10-12T11:35:04.787Z,23.50
2018-10-12T11:37:33.074Z,25.87
2018-10-12T11:40:01.331Z,24.93
2018-10-12T11:42:40.946Z,20.97
2018-10-12T11:45:09.176Z,23.30
2018-10-12T11:47:37.550Z,27.20
2018-10-12T11:50:05.839Z,26.70
2018-10-12T11:52:33.992Z,40.93
2018-10-12T11:55:02.215Z,26.07
2018-10-12T11:57:30.456Z,24.07
2018-10-12T11:59:58.777Z,19.40
2018-10-12T12:02:27.007Z,22.67
2018-10-12T12:04:55.213Z,29.27
2018-10-12T12:07:23.589Z,20.63
2018-10-12T12:09:51.954Z,20.33
2018-10-12T12:12:20.307Z,28.67
2018-10-12T12:14:48.479Z,23.00
2018-10-12T12:17:16.768Z,17.87
2018-10-12T12:19:45.059Z,25.93
2018-10-12T12:22:13.372Z,18.27
2018-10-12T12:24:41.644Z,24.67
2018-10-12T12:27:09.890Z,19.00
2018-10-12T12:29:38.138Z,23.97
2018-10-12T12:32:06.377Z,17.80
2018-10-12T12:34:34.788Z,22.47
2018-10-12T12:37:03.207Z,25.87
2018-10-12T12:39:31.380Z,28.33
2018-10-12T12:41:59.747Z,21.57
2018-10-12T12:44:28.652Z,21.83
2018-10-12T12:46:57.399Z,21.63
2018-10-12T12:49:25.868Z,20.70
2018-10-12T12:51:58.127Z,18.47
2018-10-12T12:54:26.773Z,19.50
2018-10-12T12:56:55.949Z,19.70
2018-10-12T12:59:26.185Z,20.03
2018-10-12T13:01:54.429Z,27.63
2018-10-12T13:04:22.945Z,18.10
2018-10-12T13:06:51.125Z,24.13
2018-10-12T13:09:19.892Z,24.97
2018-10-12T13:11:48.601Z,32.10
2018-10-12T13:14:16.852Z,25.23
2018-10-12T13:16:45.229Z,22.77
2018-10-12T13:19:13.453Z,28.33
2018-10-12T13:21:41.656Z,25.63
2018-10-12T13:24:10.085Z,23.93
2018-10-12T13:26:38.358Z,29.50
2018-10-12T13:29:07.008Z,24.47
2018-10-12T13:31:35.350Z,23.63
2018-10-12T13:34:04.010Z,26.47
2018-10-12T13:36:32.285Z,26.17
2018-10-12T13:39:00.478Z,21.90
2018-10-12T13:41:28.724Z,24.53
2018-10-12T13:43:56.897Z,23.03
2018-10-12T13:46:25.117Z,24.60
2018-10-12T13:48:55.576Z,27.10
2018-10-12T13:51:26.039Z,33.07
2018-10-12T13:53:54.266Z,24.67
2018-10-12T13:56:22.557Z,23.93
2018-10-12T13:58:50.939Z,20.10
2018-10-12T14:01:19.140Z,26.30
2018-10-12T14:03:47.477Z,27.43
2018-10-12T14:06:15.699Z,25.13
2018-10-12T14:08:43.865Z,23.33
2018-10-12T14:11:12.304Z,25.73
2018-10-12T14:13:40.627Z,23.50
2018-10-12T14:16:08.981Z,22.83
2018-10-12T14:18:37.312Z,18.93
2018-10-12T14:21:06.612Z,22.93
2018-10-12T14:23:34.820Z,24.80
2018-10-12T14:26:06.438Z,21.10
2018-10-12T14:28:34.669Z,21.20
2018-10-12T14:31:27.015Z,25.23
2018-10-12T14:33:55.681Z,19.60
2018-10-12T14:36:24.506Z,23.73
2018-10-12T14:38:52.941Z,21.37
2018-10-12T14:41:21.137Z,27.07
2018-10-12T14:43:49.452Z,27.33
2018-10-12T14:46:17.917Z,23.43
2018-10-12T14:48:46.201Z,21.30
2018-10-12T14:51:14.474Z,23.23
2018-10-12T14:53:42.775Z,19.90
2018-10-12T14:56:11.030Z,24.33
2018-10-12T14:58:39.325Z,19.47
2018-10-12T15:01:07.719Z,22.63
2018-10-12T15:03:35.919Z,28.07
2018-10-12T15:06:06.131Z,19.60
2018-10-12T15:08:34.471Z,23.03
2018-10-12T15:11:04.043Z,29.67
2018-10-12T15:13:32.427Z,20.00
2018-10-12T15:16:00.738Z,17.03
2018-10-12T15:18:29.025Z,17.67
2018-10-12T15:20:57.507Z,19.30
2018-10-12T15:26:56.353Z,22.83
2018-10-12T15:29:24.628Z,22.53
2018-10-12T15:31:52.938Z,18.80
2018-10-12T15:34:21.086Z,22.63
2018-10-12T15:36:51.768Z,16.10
2018-10-12T15:39:20.035Z,25.73
2018-10-12T15:41:48.246Z,24.57
2018-10-12T15:44:16.512Z,22.43
2018-10-12T15:46:45.457Z,15.03
2018-10-12T15:49:13.696Z,21.47
2018-10-12T15:51:46.577Z,16.63
2018-10-12T15:54:15.071Z,21.80
2018-10-12T15:56:50.257Z,18.23
2018-10-12T15:59:24.365Z,20.03
2018-10-12T16:01:53.544Z,18.00
2018-10-12T16:04:25.278Z,18.77
2018-10-12T16:06:53.532Z,17.63
2018-10-12T16:09:21.906Z,21.93
2018-10-12T16:11:50.271Z,26.53
2018-10-12T16:14:18.487Z,23.07
2018-10-12T16:16:46.780Z,25.80
2018-10-12T16:19:15.692Z,20.20
2018-10-12T16:21:44.565Z,19.97
2018-10-12T16:24:13.849Z,26.70
2018-10-12T16:26:42.065Z,25.87
2018-10-12T16:29:10.407Z,29.93
2018-10-12T16:31:38.538Z,29.10
2018-10-12T16:34:06.828Z,34.83
2018-10-12T16:36:35.051Z,27.73
2018-10-12T16:39:04.819Z,22.47
2018-10-12T16:41:33.704Z,33.43
2018-10-12T16:44:01.983Z,29.17
2018-10-12T16:46:30.143Z,25.97
2018-10-12T16:48:58.737Z,31.27
2018-10-12T16:51:26.924Z,32.00
2018-10-12T16:53:55.388Z,47.47
2018-10-12T16:56:23.661Z,42.87
2018-10-12T16:58:52.031Z,40.50
2018-10-12T17:01:20.256Z,37.03
2018-10-12T17:03:48.488Z,32.67
2018-10-12T17:06:16.932Z,35.13
2018-10-12T17:08:45.302Z,37.57
2018-10-12T17:11:14.016Z,49.50
2018-10-12T17:13:42.250Z,43.63
2018-10-12T17:16:10.587Z,42.67
2018-10-12T17:18:38.775Z,42.80
2018-10-12T17:21:07.073Z,39.53
2018-10-12T17:23:35.658Z,44.13
2018-10-12T17:26:10.717Z,47.10
2018-10-12T17:28:39.057Z,42.33
2018-10-12T17:31:07.262Z,40.77
2018-10-12T17:33:35.651Z,44.43
2018-10-12T17:36:04.582Z,41.03
2018-10-12T17:38:32.875Z,46.50
2018-10-12T17:41:10.302Z,39.57
2018-10-12T17:43:38.528Z,40.90
2018-10-12T17:46:06.854Z,42.70
2018-10-12T17:48:35.124Z,39.20
2018-10-12T17:51:03.349Z,30.27
2018-10-12T17:53:31.589Z,33.03
2018-10-12T17:55:59.854Z,43.63
2018-10-12T17:58:28.092Z,40.63
2018-10-12T18:00:56.314Z,37.73
2018-10-12T18:03:24.482Z,42.50
2018-10-12T18:05:52.729Z,43.47
2018-10-12T18:08:20.969Z,36.03
2018-10-12T18:10:49.320Z,35.60
2018-10-12T18:13:17.539Z,42.87
2018-10-12T18:15:45.999Z,38.90
2018-10-12T18:18:14.482Z,46.60
2018-10-12T18:20:43.477Z,49.50
2018-10-12T18:23:11.732Z,39.63
2018-10-12T18:25:40.156Z,40.73
2018-10-12T18:28:08.376Z,39.03
2018-10-12T18:30:36.602Z,38.97
2018-10-12T18:33:05.574Z,38.80
2018-10-12T18:35:33.817Z,34.10
2018-10-12T18:38:02.272Z,44.13
2018-10-12T18:40:30.600Z,40.83
2018-10-12T18:42:58.982Z,41.00
2018-10-12T18:45:27.357Z,43.67
2018-10-12T18:47:55.864Z,43.03
2018-10-12T18:50:24.116Z,47.83
2018-10-12T18:52:52.262Z,44.07
2018-10-12T18:55:20.862Z,37.97
2018-10-12T18:57:49.652Z,45.23
2018-10-12T19:00:17.883Z,38.83
2018-10-12T19:02:46.222Z,42.97
2018-10-12T19:05:14.473Z,44.33
2018-10-12T19:07:42.707Z,42.47
2018-10-12T19:10:11.936Z,44.67
2018-10-12T19:12:40.314Z,41.77
2018-10-12T19:15:08.972Z,48.13
2018-10-12T19:17:37.218Z,41.37
2018-10-12T19:20:05.434Z,49.93
2018-10-12T19:22:33.682Z,53.53
2018-10-12T19:25:01.958Z,49.37
2018-10-12T19:27:30.270Z,46.17
2018-10-12T19:29:58.625Z,46.70
2018-10-12T19:32:26.902Z,57.23
2018-10-12T19:34:55.247Z,44.07
2018-10-12T19:37:24.005Z,44.73
2018-10-12T19:39:52.321Z,44.17
2018-10-12T19:42:20.550Z,45.67
2018-10-12T19:44:49.243Z,49.30
2018-10-12T19:47:17.494Z,47.10
2018-10-12T19:49:45.734Z,49.27
2018-10-12T19:52:13.978Z,45.27
2018-10-12T19:54:42.260Z,46.67
2018-10-12T19:57:10.524Z,37.03
2018-10-12T19:59:38.802Z,39.47
2018-10-12T20:02:07.074Z,43.60
2018-10-12T20:04:35.383Z,43.03
2018-10-12T20:07:03.625Z,42.57
2018-10-12T20:09:32.528Z,36.93
2018-10-12T20:12:03.578Z,37.73
2018-10-12T20:14:31.871Z,38.27
2018-10-12T20:17:00.171Z,44.13
2018-10-12T20:19:28.386Z,58.43
2018-10-12T20:21:56.689Z,49.80
2018-10-12T20:24:24.941Z,38.13
2018-10-12T20:26:53.116Z,38.43
2018-10-12T20:29:21.417Z,35.13
2018-10-12T20:31:49.626Z,36.53
2018-10-12T20:34:17.890Z,31.43
2018-10-12T20:36:48.185Z,37.63
2018-10-12T20:39:16.425Z,40.27
2018-10-12T20:41:44.698Z,39.17
2018-10-12T20:44:12.976Z,38.10
2018-10-12T20:46:41.215Z,35.23
2018-10-12T20:49:09.452Z,39.70
2018-10-12T20:51:38.507Z,33.10
2018-10-12T20:54:07.102Z,37.20
2018-10-12T20:56:35.353Z,36.10
2018-10-12T20:59:03.644Z,36.20
2018-10-12T21:01:32.988Z,46.30
2018-10-12T21:04:01.306Z,37.17
2018-10-12T21:06:29.377Z,31.93
2018-10-12T21:08:57.621Z,39.60
2018-10-12T21:11:25.836Z,37.80
2018-10-12T21:13:54.050Z,34.63
2018-10-12T21:16:22.340Z,38.67
2018-10-12T21:18:51.157Z,32.87
2018-10-12T21:21:19.436Z,35.87
2018-10-12T21:23:57.060Z,31.37
2018-10-12T21:26:25.274Z,33.13
2018-10-12T21:28:53.491Z,34.63
2018-10-12T21:31:21.681Z,33.93
2018-10-12T21:33:49.885Z,41.13
2018-10-12T21:36:18.105Z,41.50
2018-10-12T21:38:46.359Z,39.33
2018-10-12T21:41:14.720Z,39.63
2018-10-12T21:43:44.772Z,43.13
2018-10-12T21:46:13.023Z,41.87
2018-10-12T21:48:41.290Z,36.90
2018-10-12T21:51:09.467Z,38.60
2018-10-12T21:53:38.483Z,34.77
2018-10-12T21:56:06.696Z,36.60
2018-10-12T21:58:36.508Z,37.10
2018-10-12T22:01:05.537Z,41.57
2018-10-12T22:03:37.551Z,42.57
2018-10-12T22:06:06.160Z,77.50
2018-10-12T22:08:39.703Z,41.40
2018-10-12T22:11:07.869Z,44.50
2018-10-12T22:13:36.718Z,37.20
2018-10-12T22:16:04.873Z,35.30
2018-10-12T22:18:33.039Z,38.30
2018-10-12T22:21:01.274Z,37.80
2018-10-12T22:23:29.485Z,44.10
2018-10-12T22:25:57.673Z,35.67
2018-10-12T22:28:25.848Z,36.97
2018-10-12T22:30:54.037Z,45.87
2018-10-12T22:33:22.236Z,46.83
2018-10-12T22:35:50.426Z,38.07
2018-10-12T22:38:18.601Z,38.70
2018-10-12T22:40:46.751Z,38.87
2018-10-12T22:43:14.902Z,34.13
2018-10-12T22:45:43.124Z,45.73
2018-10-12T22:48:11.340Z,40.90
2018-10-12T22:50:39.525Z,42.00
2018-10-12T22:53:07.738Z,40.43
2018-10-12T22:55:36.277Z,154.00
2018-10-12T22:58:04.465Z,48.20
2018-10-12T23:00:33.759Z,37.00
2018-10-12T23:03:02.135Z,31.70
2018-10-12T23:05:30.357Z,35.40
2018-10-12T23:07:58.537Z,34.83
2018-10-12T23:10:27.147Z,40.20
2018-10-12T23:12:59.081Z,38.17
2018-10-12T23:15:27.368Z,37.47
2018-10-12T23:17:55.565Z,42.80
2018-10-12T23:20:23.722Z,37.90
2018-10-12T23:22:51.933Z,32.70
2018-10-12T23:25:20.133Z,39.80
2018-10-12T23:27:48.330Z,37.23
2018-10-12T23:30:16.534Z,40.50
2018-10-12T23:32:44.721Z,48.57
2018-10-12T23:35:12.994Z,34.40
2018-10-12T23:37:41.339Z,37.03
2018-10-12T23:40:09.533Z,35.30
2018-10-12T23:42:37.676Z,37.83
2018-10-12T23:45:06.089Z,34.10
2018-10-12T23:47:34.260Z,43.63
2018-10-12T23:50:02.534Z,36.30
2018-10-12T23:52:30.842Z,35.57
2018-10-12T23:54:59.061Z,33.07
2018-10-12T23:57:27.239Z,36.23
2018-10-12T23:59:55.479Z,32.53
